createdAt,value
2023-04-21T00:00:17.131Z,5.62
2023-04-21T00:02:46.875Z,5.62
2023-04-21T00:05:14.528Z,5.62
2023-04-21T00:07:42.567Z,5.62
2023-04-21T00:10:11.669Z,5.59
2023-04-21T00:12:39.349Z,5.58
2023-04-21T00:15:07.711Z,5.57
2023-04-21T00:17:35.432Z,5.55
2023-04-21T00:20:04.905Z,5.54
2023-04-21T00:22:32.471Z,5.56
2023-04-21T00:24:59.988Z,5.60
2023-04-21T00:27:27.407Z,5.58
2023-04-21T00:29:54.905Z,5.55
2023-04-21T00:32:22.469Z,5.55
2023-04-21T00:34:51.003Z,5.53
2023-04-21T00:37:19.304Z,5.57
2023-04-21T00:39:46.885Z,5.59
2023-04-21T00:42:17.028Z,5.69
2023-04-21T00:44:44.841Z,5.63
2023-04-21T00:47:12.344Z,5.68
2023-04-21T00:49:40.114Z,5.66
2023-04-21T00:52:09.077Z,5.66
2023-04-21T00:54:37.255Z,5.69
2023-04-21T00:57:05.619Z,5.67
2023-04-21T00:59:33.090Z,5.63
2023-04-21T01:02:00.880Z,5.65
2023-04-21T01:04:29.530Z,5.56
2023-04-21T01:06:57.232Z,5.69
2023-04-21T01:09:24.815Z,5.70
2023-04-21T01:12:12.884Z,5.91
2023-04-21T01:14:41.580Z,5.77
2023-04-21T01:17:11.738Z,5.80
2023-04-21T01:19:42.879Z,5.87
2023-04-21T01:22:12.090Z,5.89
2023-04-21T01:24:45.539Z,5.98
2023-04-21T01:27:15.763Z,5.92
2023-04-21T01:29:44.577Z,6.00
2023-04-21T01:32:14.930Z,6.06
2023-04-21T01:34:43.312Z,6.08
2023-04-21T01:37:13.175Z,6.17
2023-04-21T01:39:43.061Z,6.22
2023-04-21T01:42:10.868Z,6.26
2023-04-21T01:44:39.233Z,6.28
2023-04-21T01:47:07.253Z,6.30
2023-04-21T01:49:34.813Z,6.37
2023-04-21T01:52:02.681Z,6.41
2023-04-21T01:54:30.719Z,6.47
2023-04-21T01:56:59.219Z,6.48
2023-04-21T01:59:26.771Z,6.64
2023-04-21T02:01:54.347Z,6.65
2023-04-21T02:04:25.116Z,6.83
2023-04-21T02:06:58.345Z,6.88
2023-04-21T02:09:26.382Z,6.90
2023-04-21T02:11:57.645Z,7.02
2023-04-21T02:14:26.505Z,6.98
2023-04-21T02:16:54.120Z,7.11
2023-04-21T02:19:22.523Z,7.21
2023-04-21T02:21:50.125Z,7.33
2023-04-21T02:24:17.644Z,7.43
2023-04-21T02:26:46.416Z,7.57
2023-04-21T02:29:14.255Z,7.78
2023-04-21T02:31:56.529Z,8.13
2023-04-21T02:34:28.845Z,8.95
2023-04-21T02:36:56.837Z,9.73
2023-04-21T02:39:24.256Z,10.63
2023-04-21T02:41:52.467Z,11.44
2023-04-21T02:44:21.642Z,12.18
2023-04-21T02:46:49.218Z,12.87
2023-04-21T02:49:16.984Z,13.53
2023-04-21T02:51:44.610Z,14.12
2023-04-21T02:54:12.136Z,14.64
2023-04-21T02:56:39.718Z,15.12
2023-04-21T02:59:07.454Z,15.68
2023-04-21T03:01:34.953Z,16.21
2023-04-21T03:04:02.732Z,16.73
2023-04-21T03:06:33.766Z,17.16
2023-04-21T03:09:01.691Z,17.77
2023-04-21T03:11:29.230Z,18.26
2023-04-21T03:13:56.678Z,18.69
2023-04-21T03:16:24.204Z,19.00
2023-04-21T03:18:51.726Z,19.48
2023-04-21T03:21:19.414Z,19.93
2023-04-21T03:23:47.470Z,20.25
2023-04-21T03:26:15.342Z,20.65
2023-04-21T03:28:42.823Z,21.00
2023-04-21T03:31:10.302Z,21.36
2023-04-21T03:33:37.848Z,21.72
2023-04-21T03:36:05.545Z,22.07
2023-04-21T03:38:32.968Z,22.38
2023-04-21T03:41:05.183Z,22.71
2023-04-21T03:43:32.647Z,23.03
2023-04-21T03:46:00.196Z,23.30
2023-04-21T03:48:29.355Z,23.50
2023-04-21T03:50:57.025Z,23.93
2023-04-21T03:53:24.528Z,24.24
2023-04-21T03:55:52.245Z,24.57
2023-04-21T03:58:19.808Z,24.85
2023-04-21T04:00:47.264Z,25.19
2023-04-21T04:03:14.854Z,25.49
2023-04-21T04:05:42.649Z,25.74
2023-04-21T04:08:10.011Z,25.99
2023-04-21T04:10:37.616Z,26.13
2023-04-21T04:13:05.280Z,26.33
2023-04-21T04:15:32.862Z,26.55
2023-04-21T04:18:00.624Z,26.75
2023-04-21T04:20:28.320Z,27.01
2023-04-21T04:22:55.824Z,27.33
2023-04-21T04:25:23.522Z,27.53
2023-04-21T04:27:50.990Z,27.89
2023-04-21T04:30:18.592Z,28.14
2023-04-21T04:32:46.146Z,28.38
2023-04-21T04:35:13.934Z,28.68
2023-04-21T04:37:41.628Z,28.87
2023-04-21T04:40:10.808Z,29.07
2023-04-21T04:42:40.435Z,29.27
2023-04-21T04:45:11.678Z,29.44
2023-04-21T04:47:39.193Z,29.41
2023-04-21T04:50:07.345Z,29.53
2023-04-21T04:52:34.794Z,29.69
2023-04-21T04:55:02.369Z,29.89
2023-04-21T04:57:31.525Z,29.95
2023-04-21T04:59:59.077Z,30.10
2023-04-21T05:02:26.968Z,30.10
2023-04-21T05:04:54.770Z,30.03
2023-04-21T05:07:22.332Z,29.94
2023-04-21T05:09:52.729Z,29.87
2023-04-21T05:12:20.401Z,29.86
2023-04-21T05:14:47.819Z,30.01
2023-04-21T05:17:15.301Z,30.11
2023-04-21T05:19:42.762Z,30.40
2023-04-21T05:22:10.274Z,30.71
2023-04-21T05:24:38.070Z,30.91
2023-04-21T05:27:05.536Z,31.34
2023-04-21T05:29:34.585Z,31.73
2023-04-21T05:32:02.292Z,31.99
2023-04-21T05:34:29.786Z,32.21
2023-04-21T05:36:57.260Z,32.51
2023-04-21T05:39:24.827Z,32.48
2023-04-21T05:41:52.275Z,32.47
2023-04-21T05:44:20.183Z,32.65
2023-04-21T05:46:47.842Z,32.79
2023-04-21T05:49:15.343Z,32.91
2023-04-21T05:51:42.811Z,32.82
2023-04-21T05:54:10.270Z,32.84
2023-04-21T05:56:37.668Z,33.12
2023-04-21T05:59:07.240Z,33.19
2023-04-21T06:01:34.742Z,33.42
2023-04-21T06:04:02.367Z,33.56
2023-04-21T06:06:30.046Z,33.44
2023-04-21T06:08:57.593Z,33.00
2023-04-21T06:11:25.413Z,33.02
2023-04-21T06:13:54.741Z,32.95
2023-04-21T06:16:22.333Z,32.63
2023-04-21T06:18:50.008Z,32.08
2023-04-21T06:21:17.522Z,31.82
2023-04-21T06:23:45.030Z,31.63
2023-04-21T06:26:13.198Z,31.55
2023-04-21T06:28:40.899Z,31.99
2023-04-21T06:31:10.065Z,31.77
2023-04-21T06:33:37.686Z,31.76
2023-04-21T06:36:05.628Z,32.11
2023-04-21T06:38:33.331Z,32.19
2023-04-21T06:41:01.011Z,32.04
2023-04-21T06:43:28.576Z,31.86
2023-04-21T06:45:56.056Z,31.92
2023-04-21T06:48:24.756Z,32.00
2023-04-21T06:50:52.691Z,31.69
2023-04-21T06:53:21.920Z,31.45
2023-04-21T06:55:49.381Z,31.25
2023-04-21T06:58:17.947Z,30.96
2023-04-21T07:00:46.728Z,30.96
2023-04-21T07:03:14.321Z,31.29
2023-04-21T07:05:43.225Z,31.65
2023-04-21T07:08:10.780Z,31.87
2023-04-21T07:10:38.421Z,31.99
2023-04-21T07:13:08.226Z,31.96
2023-04-21T07:15:37.723Z,31.97
2023-04-21T07:18:05.360Z,31.59
2023-04-21T07:20:32.928Z,31.10
2023-04-21T07:23:00.475Z,30.92
2023-04-21T07:25:28.186Z,30.79
2023-04-21T07:27:55.644Z,30.64
2023-04-21T07:30:23.249Z,30.39
2023-04-21T07:32:50.899Z,30.04
2023-04-21T07:35:18.493Z,29.82
2023-04-21T07:37:46.292Z,29.50
2023-04-21T07:40:14.757Z,29.22
2023-04-21T07:42:42.144Z,29.00
2023-04-21T07:45:10.106Z,28.74
2023-04-21T07:47:37.664Z,28.35
2023-04-21T07:50:06.020Z,28.34
2023-04-21T07:52:33.533Z,28.30
2023-04-21T07:55:01.264Z,27.80
2023-04-21T07:57:28.803Z,27.89
2023-04-21T07:59:56.306Z,27.93
2023-04-21T08:02:23.908Z,27.80
2023-04-21T08:04:51.609Z,27.73
2023-04-21T08:07:19.291Z,26.98
2023-04-21T08:09:46.869Z,26.86
2023-04-21T08:12:14.436Z,26.79
2023-04-21T08:14:42.065Z,26.59
2023-04-21T08:17:09.749Z,26.26
2023-04-21T08:19:37.166Z,25.74
2023-04-21T08:22:04.818Z,25.80
2023-04-21T08:24:32.399Z,25.30
2023-04-21T08:27:00.091Z,25.06
2023-04-21T08:29:27.716Z,25.05
2023-04-21T08:31:55.364Z,24.82
2023-04-21T08:34:24.997Z,24.75
2023-04-21T08:36:54.112Z,24.66
2023-04-21T08:39:21.764Z,24.44
2023-04-21T08:41:51.272Z,24.33
2023-04-21T08:44:19.723Z,24.04
2023-04-21T08:46:50.985Z,24.02
2023-04-21T08:49:21.835Z,23.81
2023-04-21T08:51:49.493Z,23.61
2023-04-21T08:54:17.042Z,23.40
2023-04-21T08:56:44.549Z,23.37
2023-04-21T08:59:12.137Z,23.02
2023-04-21T09:02:16.511Z,23.54
2023-04-21T09:04:47.135Z,23.19
2023-04-21T09:07:39.470Z,23.41
2023-04-21T09:10:07.608Z,22.89
2023-04-21T09:12:35.083Z,22.74
2023-04-21T09:15:06.648Z,22.87
2023-04-21T09:17:34.316Z,22.64
2023-04-21T09:20:16.852Z,22.90
2023-04-21T09:22:45.321Z,22.42
2023-04-21T09:25:18.009Z,22.41
2023-04-21T09:27:47.113Z,22.12
2023-04-21T09:30:18.766Z,21.77
2023-04-21T09:32:46.416Z,21.99
2023-04-21T09:35:14.140Z,22.02
2023-04-21T09:37:44.770Z,22.15
2023-04-21T09:40:18.258Z,21.86
2023-04-21T09:42:46.895Z,21.64
2023-04-21T09:47:56.158Z,21.56
2023-04-21T09:50:54.401Z,21.41
2023-04-21T09:53:17.339Z,21.37
2023-04-21T09:55:48.750Z,21.43
2023-04-21T09:58:20.621Z,21.39
2023-04-21T10:00:48.329Z,21.39
2023-04-21T10:03:18.661Z,21.45
2023-04-21T10:05:46.438Z,21.33
2023-04-21T10:08:14.053Z,21.28
2023-04-21T10:10:42.097Z,21.31
2023-04-21T10:13:16.407Z,21.30
2023-04-21T10:15:44.197Z,20.99
2023-04-21T10:18:22.960Z,21.15
2023-04-21T10:21:02.847Z,20.99
2023-04-21T10:23:31.707Z,20.86
2023-04-21T10:26:20.750Z,20.98
2023-04-21T10:28:52.460Z,20.67
2023-04-21T10:31:31.037Z,20.86
2023-04-21T10:34:13.440Z,21.11
2023-04-21T10:37:03.905Z,21.29
2023-04-21T10:39:43.646Z,20.89
2023-04-21T10:42:14.279Z,20.67
2023-04-21T10:44:53.880Z,20.56
2023-04-21T10:47:28.918Z,20.19
2023-04-21T10:49:58.557Z,20.05
2023-04-21T10:52:36.150Z,20.22
2023-04-21T10:55:10.976Z,20.14
2023-04-21T10:57:44.192Z,19.99
2023-04-21T11:00:18.551Z,19.78
2023-04-21T11:02:58.687Z,19.88
2023-04-21T11:05:44.585Z,19.88
2023-04-21T11:08:14.980Z,19.70
2023-04-21T11:10:50.620Z,19.73
2023-04-21T11:13:20.682Z,19.42
2023-04-21T11:16:02.728Z,19.52
2023-04-21T11:18:37.187Z,19.42
2023-04-21T11:21:12.680Z,19.42
2023-04-21T11:23:42.186Z,19.21
2023-04-21T11:26:09.709Z,19.06
2023-04-21T11:28:37.190Z,19.12
2023-04-21T11:31:05.219Z,19.05
2023-04-21T11:33:39.472Z,19.19
2023-04-21T11:36:08.030Z,18.90
2023-04-21T11:38:42.177Z,18.91
2023-04-21T11:41:11.182Z,18.60
2023-04-21T11:43:39.124Z,18.51
2023-04-21T11:46:19.145Z,18.87
2023-04-21T11:48:47.277Z,18.60
2023-04-21T11:51:21.374Z,18.65
2023-04-21T11:53:49.874Z,18.28
2023-04-21T11:56:23.750Z,18.40
2023-04-21T11:58:53.081Z,18.33
2023-04-21T12:01:23.589Z,18.36
2023-04-21T12:03:56.122Z,18.32
2023-04-21T12:06:31.834Z,18.21
2023-04-21T12:09:03.211Z,18.24
2023-04-21T12:11:32.094Z,18.19
2023-04-21T12:14:00.444Z,18.11
2023-04-21T12:16:31.052Z,18.09
2023-04-21T12:18:58.641Z,17.74
2023-04-21T12:21:30.646Z,17.85
2023-04-21T12:23:58.224Z,17.76
2023-04-21T12:26:25.801Z,17.79
2023-04-21T12:28:53.880Z,17.84
2023-04-21T12:31:21.454Z,17.76
2023-04-21T12:33:49.122Z,17.61
2023-04-21T12:36:17.029Z,17.47
2023-04-21T12:38:44.979Z,17.36
2023-04-21T12:41:12.450Z,17.34
2023-04-21T12:43:39.920Z,17.14
2023-04-21T12:46:07.587Z,16.88
2023-04-21T12:48:35.131Z,16.71
2023-04-21T12:51:05.468Z,16.47
2023-04-21T12:53:32.885Z,16.73
2023-04-21T12:56:04.488Z,16.93
2023-04-21T12:58:32.845Z,16.74
2023-04-21T13:01:00.295Z,16.74
2023-04-21T13:03:28.029Z,16.40
2023-04-21T13:05:55.746Z,16.32
2023-04-21T13:08:23.170Z,16.36
2023-04-21T13:10:50.694Z,16.23
2023-04-21T13:13:18.290Z,16.12
2023-04-21T13:15:46.042Z,16.05
2023-04-21T13:18:13.492Z,15.97
2023-04-21T13:20:41.060Z,15.81
2023-04-21T13:23:09.087Z,15.70
2023-04-21T13:25:36.595Z,15.58
2023-04-21T13:28:04.307Z,15.59
2023-04-21T13:30:31.862Z,15.60
2023-04-21T13:32:59.445Z,15.54
2023-04-21T13:35:26.974Z,15.54
2023-04-21T13:37:54.810Z,15.49
2023-04-21T13:40:22.373Z,15.50
2023-04-21T13:42:50.062Z,15.47
2023-04-21T13:45:17.585Z,15.44
2023-04-21T13:47:45.240Z,15.26
2023-04-21T13:50:13.050Z,15.16
2023-04-21T13:52:40.990Z,15.00
2023-04-21T13:55:08.835Z,14.88
2023-04-21T13:57:36.607Z,14.80
2023-04-21T14:00:15.271Z,14.56
2023-04-21T14:02:42.954Z,14.46
2023-04-21T14:05:10.777Z,14.41
2023-04-21T14:07:38.764Z,13.87
2023-04-21T14:10:06.953Z,13.94
2023-04-21T14:12:34.525Z,13.83
2023-04-21T14:15:02.148Z,13.80
2023-04-21T14:17:31.030Z,13.86
2023-04-21T14:19:58.601Z,13.75
2023-04-21T14:22:26.155Z,13.77
2023-04-21T14:24:53.640Z,13.78
2023-04-21T14:27:21.485Z,13.90
2023-04-21T14:29:49.043Z,13.87
2023-04-21T14:32:16.815Z,13.91
2023-04-21T14:34:44.412Z,13.81
2023-04-21T14:37:11.901Z,13.78
2023-04-21T14:39:39.470Z,13.81
2023-04-21T14:42:06.975Z,13.63
2023-04-21T14:44:35.885Z,13.58
2023-04-21T14:47:09.630Z,13.53
2023-04-21T14:49:38.798Z,13.54
2023-04-21T14:52:07.272Z,13.45
2023-04-21T14:54:34.898Z,13.47
2023-04-21T14:57:14.800Z,13.43
2023-04-21T14:59:47.113Z,13.48
2023-04-21T15:02:14.923Z,13.42
2023-04-21T15:04:42.601Z,13.42
2023-04-21T15:07:10.215Z,13.43
2023-04-21T15:09:39.040Z,13.43
2023-04-21T15:12:07.071Z,13.41
2023-04-21T15:14:34.620Z,13.49
2023-04-21T15:17:02.305Z,13.23
2023-04-21T15:19:29.819Z,13.34
2023-04-21T15:21:57.921Z,13.08
2023-04-21T15:24:25.482Z,13.08
2023-04-21T15:26:53.428Z,13.01
2023-04-21T15:29:20.938Z,12.87
2023-04-21T15:31:48.580Z,12.74
2023-04-21T15:34:15.988Z,12.73
2023-04-21T15:36:43.474Z,12.88
2023-04-21T15:39:14.337Z,12.48
2023-04-21T15:41:41.987Z,12.03
2023-04-21T15:44:09.656Z,11.89
2023-04-21T15:46:37.294Z,11.62
2023-04-21T15:49:04.883Z,11.58
2023-04-21T15:51:35.939Z,11.42
2023-04-21T15:54:04.923Z,11.19
2023-04-21T15:56:32.559Z,11.04
2023-04-21T15:59:00.025Z,10.87
2023-04-21T16:01:27.577Z,10.96
2023-04-21T16:03:55.971Z,11.03
2023-04-21T16:06:25.420Z,11.18
2023-04-21T16:08:53.049Z,11.23
2023-04-21T16:11:21.052Z,11.36
2023-04-21T16:13:49.742Z,11.43
2023-04-21T16:16:17.332Z,11.48
2023-04-21T16:18:44.851Z,11.49
2023-04-21T16:21:12.552Z,11.56
2023-04-21T16:23:40.395Z,11.53
2023-04-21T16:26:09.316Z,11.59
2023-04-21T16:28:36.925Z,11.47
2023-04-21T16:31:04.591Z,11.67
2023-04-21T16:33:32.604Z,11.70
2023-04-21T16:36:00.206Z,11.74
2023-04-21T16:38:27.723Z,11.76
2023-04-21T16:40:55.416Z,11.82
2023-04-21T16:43:23.008Z,11.87
2023-04-21T16:45:50.694Z,11.83
2023-04-21T16:48:18.589Z,11.86
2023-04-21T16:50:46.544Z,11.80
2023-04-21T16:53:14.239Z,11.68
2023-04-21T16:55:41.778Z,11.79
2023-04-21T16:58:09.251Z,11.80
2023-04-21T17:00:38.516Z,11.83
2023-04-21T17:03:06.379Z,11.88
2023-04-21T17:05:34.201Z,11.96
2023-04-21T17:08:01.818Z,11.90
2023-04-21T17:10:29.346Z,11.92
2023-04-21T17:12:56.865Z,11.87
2023-04-21T17:15:24.630Z,11.83
2023-04-21T17:17:52.218Z,11.68
2023-04-21T17:20:19.711Z,11.56
2023-04-21T17:22:47.292Z,11.59
2023-04-21T17:25:14.830Z,11.53
2023-04-21T17:27:42.497Z,11.45
2023-04-21T17:30:10.493Z,11.19
2023-04-21T17:32:38.490Z,11.23
2023-04-21T17:35:06.294Z,11.15
2023-04-21T17:37:34.905Z,11.12
2023-04-21T17:40:03.266Z,10.96
2023-04-21T17:42:31.983Z,10.78
2023-04-21T17:44:59.603Z,10.77
2023-04-21T17:47:27.329Z,10.72
2023-04-21T17:49:55.034Z,10.49
2023-04-21T17:52:22.565Z,10.42
2023-04-21T17:54:50.015Z,10.29
2023-04-21T17:57:17.617Z,10.20
2023-04-21T17:59:45.164Z,10.03
2023-04-21T18:02:12.746Z,9.95
2023-04-21T18:04:40.678Z,9.68
2023-04-21T18:07:08.574Z,9.68
2023-04-21T18:09:36.057Z,9.57
2023-04-21T18:12:04.278Z,9.51
2023-04-21T18:14:32.049Z,9.41
2023-04-21T18:16:59.498Z,9.43
2023-04-21T18:19:27.245Z,9.36
2023-04-21T18:21:54.895Z,9.34
2023-04-21T18:24:22.441Z,9.16
2023-04-21T18:26:51.595Z,9.18
2023-04-21T18:29:19.892Z,9.06
2023-04-21T18:31:47.707Z,9.01
2023-04-21T18:34:15.500Z,8.97
2023-04-21T18:36:43.282Z,8.96
2023-04-21T18:39:11.224Z,8.83
2023-04-21T18:41:39.029Z,8.79
2023-04-21T18:44:06.954Z,8.80
2023-04-21T18:46:34.523Z,8.69
2023-04-21T18:49:02.117Z,8.64
2023-04-21T18:51:31.657Z,8.56
2023-04-21T18:53:59.144Z,8.61
2023-04-21T18:56:27.386Z,8.64
2023-04-21T18:58:54.989Z,8.60
2023-04-21T19:01:22.561Z,8.52
2023-04-21T19:03:50.555Z,8.44
2023-04-21T19:06:18.138Z,8.46
2023-04-21T19:08:45.622Z,8.35
2023-04-21T19:11:15.652Z,8.37
2023-04-21T19:13:43.151Z,8.33
2023-04-21T19:16:11.935Z,8.32
2023-04-21T19:18:39.556Z,8.28
2023-04-21T19:21:07.396Z,8.35
2023-04-21T19:23:34.904Z,8.38
2023-04-21T19:26:05.433Z,8.40
2023-04-21T19:28:33.079Z,8.40
2023-04-21T19:31:00.505Z,8.44
2023-04-21T19:33:28.287Z,8.48
2023-04-21T19:35:56.305Z,8.54
2023-04-21T19:38:23.917Z,8.56
2023-04-21T19:40:51.315Z,8.67
2023-04-21T19:43:20.546Z,8.74
2023-04-21T19:45:48.680Z,8.83
2023-04-21T19:48:16.458Z,8.90
2023-04-21T19:50:44.142Z,8.92
2023-04-21T19:53:15.004Z,8.98
2023-04-21T19:55:43.270Z,9.05
2023-04-21T19:58:10.880Z,9.04
2023-04-21T20:00:38.538Z,9.02
2023-04-21T20:03:07.412Z,9.00
2023-04-21T20:05:35.174Z,8.91
2023-04-21T20:08:02.601Z,8.96
2023-04-21T20:10:30.089Z,9.00
2023-04-21T20:12:57.554Z,8.95
2023-04-21T20:15:25.129Z,8.96
2023-04-21T20:17:52.622Z,9.03
2023-04-21T20:20:20.181Z,9.05
2023-04-21T20:22:48.608Z,9.08
2023-04-21T20:25:16.048Z,9.05
2023-04-21T20:27:43.742Z,9.06
2023-04-21T20:30:16.275Z,9.08
2023-04-21T20:32:45.287Z,9.08
2023-04-21T20:35:16.301Z,9.07
2023-04-21T20:37:47.576Z,9.07
2023-04-21T20:40:15.067Z,9.05
2023-04-21T20:42:45.278Z,9.09
2023-04-21T20:45:13.150Z,9.08
2023-04-21T20:47:40.714Z,9.09
2023-04-21T20:50:08.536Z,9.08
2023-04-21T20:52:36.926Z,9.13
2023-04-21T20:55:04.552Z,9.13
2023-04-21T20:57:33.284Z,9.12
2023-04-21T21:00:00.901Z,9.11
2023-04-21T21:02:28.494Z,9.18
2023-04-21T21:04:56.095Z,9.18
2023-04-21T21:07:23.680Z,9.22
2023-04-21T21:09:51.144Z,9.23
2023-04-21T21:12:18.654Z,9.23
2023-04-21T21:14:46.276Z,9.26
2023-04-21T21:17:16.524Z,9.26
2023-04-21T21:19:45.656Z,9.26
2023-04-21T21:22:13.102Z,9.29
2023-04-21T21:24:40.730Z,9.25
2023-04-21T21:27:08.457Z,9.25
2023-04-21T21:29:36.361Z,9.25
2023-04-21T21:32:04.173Z,9.24
2023-04-21T21:34:31.821Z,9.26
2023-04-21T21:36:59.320Z,9.22
2023-04-21T21:39:27.483Z,9.28
2023-04-21T21:41:54.926Z,9.24
2023-04-21T21:44:22.465Z,9.23
2023-04-21T21:46:51.131Z,9.29
2023-04-21T21:49:18.699Z,9.25
2023-04-21T21:51:46.203Z,9.22
2023-04-21T21:54:13.709Z,9.17
2023-04-21T21:56:42.285Z,9.18
2023-04-21T21:59:09.747Z,9.13
2023-04-21T22:01:37.168Z,9.12
2023-04-21T22:04:05.585Z,9.15
2023-04-21T22:06:35.035Z,9.15
2023-04-21T22:09:02.498Z,9.15
2023-04-21T22:11:30.091Z,9.09
2023-04-21T22:14:00.678Z,9.11
2023-04-21T22:16:32.793Z,9.11
2023-04-21T22:19:00.238Z,9.13
2023-04-21T22:21:28.093Z,9.12
2023-04-21T22:23:55.672Z,9.07
2023-04-21T22:26:23.101Z,9.07
2023-04-21T22:28:52.401Z,9.01
2023-04-21T22:31:19.975Z,9.00
2023-04-21T22:33:47.440Z,8.96
2023-04-21T22:36:14.909Z,8.96
2023-04-21T22:38:43.949Z,8.94
2023-04-21T22:41:11.550Z,8.80
2023-04-21T22:43:39.063Z,8.91
2023-04-21T22:46:07.253Z,8.95
2023-04-21T22:48:36.501Z,8.95
2023-04-21T22:51:05.084Z,8.97
2023-04-21T22:53:32.450Z,8.97
2023-04-21T22:56:00.142Z,8.93
2023-04-21T22:58:27.654Z,8.93
2023-04-21T23:00:55.316Z,8.97
2023-04-21T23:03:23.603Z,8.97
2023-04-21T23:05:51.294Z,8.96
2023-04-21T23:08:18.812Z,8.93
2023-04-21T23:10:46.401Z,8.87
2023-04-21T23:13:14.035Z,8.89
2023-04-21T23:15:41.535Z,8.88
2023-04-21T23:18:09.133Z,8.84
2023-04-21T23:20:36.833Z,8.85
2023-04-21T23:23:04.341Z,8.85
2023-04-21T23:25:31.867Z,8.83
2023-04-21T23:27:59.491Z,8.83
2023-04-21T23:30:27.014Z,8.80
2023-04-21T23:32:54.625Z,8.74
2023-04-21T23:35:22.334Z,8.62
2023-04-21T23:37:49.775Z,8.57
2023-04-21T23:40:17.272Z,8.60
2023-04-21T23:42:47.512Z,8.54
2023-04-21T23:45:15.980Z,8.55
2023-04-21T23:47:43.492Z,8.57
2023-04-21T23:50:11.485Z,8.60
2023-04-21T23:52:39.790Z,8.60
2023-04-21T23:55:08.533Z,8.61
2023-04-21T23:57:36.464Z,8.61
